Time;durP1;ratioP1;P1;durP2;ratioP2;P2;SDS_P1;SDS_P2;PMS_P1;PMS_P2;Temp;Humidity;BMP_temperature;BMP_pressure;BME280_temperature;BME280_humidity;BME280_pressure;Samples;Min_cycle;Max_cycle;Signal;HPM_P1;HPM_P2
2021/10/19 00:00:15;;;;;;;4.57;4.28;;;17.80;78.20;;;;;;4994086;28;20527;-89
2021/10/19 00:02:42;;;;;;;4.68;4.38;;;17.80;78.20;;;;;;4992615;28;20030;-90
2021/10/19 00:05:08;;;;;;;4.60;4.40;;;17.70;78.30;;;;;;4993753;28;20057;-89
2021/10/19 00:07:35;;;;;;;4.13;3.92;;;17.70;78.30;;;;;;4990324;28;20030;-90
2021/10/19 00:10:01;;;;;;;4.10;3.90;;;17.70;78.30;;;;;;5006479;28;20029;-89
2021/10/19 00:12:27;;;;;;;5.05;4.75;;;17.70;78.30;;;;;;4995041;28;20523;-90
2021/10/19 00:14:53;;;;;;;4.60;4.30;;;17.70;78.30;;;;;;4994108;28;20399;-89
2021/10/19 00:17:19;;;;;;;4.57;4.22;;;17.70;78.30;;;;;;4997148;28;20031;-89
2021/10/19 00:19:45;;;;;;;3.80;3.60;;;17.60;78.40;;;;;;5003549;28;20043;-91
2021/10/19 00:22:12;;;;;;;4.05;3.85;;;17.60;78.40;;;;;;4993846;28;20037;-89
2021/10/19 00:24:38;;;;;;;3.22;3.10;;;17.60;78.40;;;;;;4995756;28;20057;-90
2021/10/19 00:27:07;;;;;;;4.03;3.83;;;17.60;78.40;;;;;;4995839;28;20029;-89
2021/10/19 00:29:33;;;;;;;3.83;3.53;;;17.60;78.40;;;;;;4984886;28;20042;-89
2021/10/19 00:31:59;;;;;;;3.42;3.33;;;17.60;78.40;;;;;;4973244;28;20034;-89
2021/10/19 00:34:25;;;;;;;3.88;3.55;;;17.60;78.40;;;;;;4990423;28;20042;-89
2021/10/19 00:36:51;;;;;;;3.80;3.60;;;17.60;78.40;;;;;;5011985;28;20066;-90
2021/10/19 00:39:18;;;;;;;4.50;4.10;;;17.60;78.40;;;;;;4994885;28;20042;-90
2021/10/19 00:41:44;;;;;;;5.38;3.92;;;17.60;78.40;;;;;;4992373;28;20053;-89
2021/10/19 00:44:10;;;;;;;4.00;3.80;;;17.60;78.50;;;;;;4993414;28;20036;-89
2021/10/19 00:46:38;;;;;;;4.20;4.00;;;17.60;78.50;;;;;;4971230;28;20365;-89
2021/10/19 00:49:04;;;;;;;4.20;4.00;;;17.60;78.60;;;;;;4994801;28;20057;-89
2021/10/19 00:51:30;;;;;;;4.65;4.35;;;17.50;78.50;;;;;;4994946;28;20034;-89
2021/10/19 00:53:56;;;;;;;4.50;4.22;;;17.50;79.30;;;;;;4987580;28;20384;-89
2021/10/19 00:56:22;;;;;;;4.53;4.05;;;17.50;78.60;;;;;;4988903;28;20035;-90
2021/10/19 00:58:49;;;;;;;4.45;4.15;;;17.50;78.70;;;;;;4988243;28;20158;-91
2021/10/19 01:01:15;;;;;;;4.60;4.30;;;17.40;78.70;;;;;;4992049;28;20483;-90
2021/10/19 01:03:41;;;;;;;5.03;4.70;;;17.40;78.70;;;;;;4995957;28;20045;-89
2021/10/19 01:06:07;;;;;;;4.72;4.20;;;17.40;78.80;;;;;;4995765;28;20383;-90
2021/10/19 01:08:34;;;;;;;4.90;4.47;;;17.40;78.80;;;;;;5000281;28;20402;-89
2021/10/19 01:11:01;;;;;;;3.92;3.72;;;17.30;78.80;;;;;;4988122;28;20045;-90
2021/10/19 01:13:27;;;;;;;4.05;3.85;;;17.30;78.80;;;;;;4989696;28;22548;-89
2021/10/19 01:16:02;;;;;;;4.72;4.40;;;17.30;78.80;;;;;;5011067;28;20045;-89
2021/10/19 01:18:28;;;;;;;4.00;3.67;;;17.30;78.90;;;;;;4978894;28;20042;-90
2021/10/19 01:20:54;;;;;;;5.20;4.85;;;17.20;78.90;;;;;;4978370;28;20046;-89
2021/10/19 01:23:20;;;;;;;4.05;3.75;;;17.20;78.90;;;;;;4987590;28;20034;-91
2021/10/19 01:25:47;;;;;;;4.07;3.88;;;17.20;78.90;;;;;;4976801;28;20380;-89
2021/10/19 01:28:13;;;;;;;3.88;3.67;;;17.10;78.90;;;;;;4996071;28;20031;-89
2021/10/19 01:30:41;;;;;;;4.70;4.40;;;17.20;79.00;;;;;;4997473;28;20041;-90
2021/10/19 01:33:07;;;;;;;4.65;4.30;;;17.10;79.00;;;;;;4993468;28;20034;-90
2021/10/19 01:35:46;;;;;;;3.83;3.58;;;17.10;79.00;;;;;;4980148;28;20046;-89
2021/10/19 01:38:14;;;;;;;3.80;3.60;;;17.10;79.10;;;;;;4979108;28;20053;-89
2021/10/19 01:40:40;;;;;;;3.47;3.28;;;17.00;79.10;;;;;;4993569;28;20039;-89
2021/10/19 01:43:10;;;;;;;3.92;3.72;;;17.00;79.10;;;;;;4980522;28;20483;-90
2021/10/19 01:45:36;;;;;;;4.03;3.83;;;17.00;79.10;;;;;;5029400;28;20504;-89
2021/10/19 01:48:03;;;;;;;4.43;4.13;;;17.00;79.10;;;;;;4997648;28;20034;-89
2021/10/19 01:50:29;;;;;;;3.97;3.78;;;17.00;79.10;;;;;;4981264;28;20049;-89
2021/10/19 01:52:55;;;;;;;3.90;3.70;;;17.00;79.10;;;;;;4992972;28;20038;-89
2021/10/19 01:55:22;;;;;;;4.00;3.80;;;16.90;79.10;;;;;;4993296;28;20063;-91
2021/10/19 01:57:48;;;;;;;4.63;4.25;;;16.90;79.10;;;;;;5008437;28;20045;-89
2021/10/19 02:00:14;;;;;;;3.92;3.72;;;16.90;79.20;;;;;;4996083;28;20038;-89
2021/10/19 02:02:40;;;;;;;3.83;3.63;;;16.80;79.20;;;;;;4987786;28;20029;-89
2021/10/19 02:05:07;;;;;;;4.10;3.80;;;16.80;79.20;;;;;;4984888;28;20403;-89
2021/10/19 02:07:33;;;;;;;4.38;4.07;;;16.80;79.20;;;;;;4988403;28;20468;-89
2021/10/19 02:10:00;;;;;;;4.40;4.10;;;16.80;79.20;;;;;;4991930;28;20039;-89
2021/10/19 02:12:27;;;;;;;3.67;3.47;;;16.80;79.20;;;;;;4980527;28;20037;-89
2021/10/19 02:14:53;;;;;;;3.70;3.50;;;16.80;79.20;;;;;;5002558;28;20037;-89
2021/10/19 02:17:19;;;;;;;3.58;3.38;;;16.70;79.20;;;;;;4991870;28;20038;-89
2021/10/19 02:19:45;;;;;;;4.55;4.25;;;16.70;79.30;;;;;;4992327;28;20045;-90
2021/10/19 02:22:11;;;;;;;4.40;4.10;;;16.70;79.30;;;;;;4992726;28;20033;-90
2021/10/19 02:24:37;;;;;;;3.88;3.67;;;16.70;79.30;;;;;;5023295;28;20088;-90
2021/10/19 02:27:03;;;;;;;4.05;3.85;;;16.60;79.30;;;;;;5023911;28;20038;-89
2021/10/19 02:29:30;;;;;;;4.20;3.95;;;16.60;79.30;;;;;;5023668;28;20060;-90
2021/10/19 02:31:56;;;;;;;4.90;4.60;;;16.60;79.40;;;;;;4989949;28;20669;-90
2021/10/19 02:34:22;;;;;;;3.67;3.47;;;16.60;79.40;;;;;;5005920;28;20193;-89
2021/10/19 02:36:48;;;;;;;3.70;3.50;;;16.60;79.40;;;;;;4975951;28;20073;-89
2021/10/19 02:39:14;;;;;;;4.07;3.80;;;16.50;79.40;;;;;;4999459;28;20050;-89
2021/10/19 02:41:40;;;;;;;3.75;3.50;;;16.50;79.30;;;;;;5001994;28;20033;-89
2021/10/19 02:44:07;;;;;;;13.65;3.92;;;16.50;79.40;;;;;;4986803;28;20095;-89
2021/10/19 02:46:33;;;;;;;4.25;4.05;;;16.50;79.40;;;;;;5007609;28;20038;-89
2021/10/19 02:49:00;;;;;;;4.15;3.95;;;16.50;79.50;;;;;;5013370;28;20019;-89
2021/10/19 02:51:26;;;;;;;4.20;3.90;;;16.40;79.40;;;;;;4990872;28;20455;-89
2021/10/19 02:53:55;;;;;;;4.10;3.90;;;16.40;79.40;;;;;;4977606;28;20038;-89
2021/10/19 02:56:21;;;;;;;4.07;3.88;;;16.40;79.40;;;;;;4977559;28;20399;-89
2021/10/19 02:58:48;;;;;;;3.85;3.65;;;16.30;79.40;;;;;;4991342;28;20039;-89
2021/10/19 03:01:14;;;;;;;3.80;3.60;;;16.30;79.40;;;;;;4994738;28;20069;-88
2021/10/19 03:03:40;;;;;;;3.90;3.70;;;16.30;79.40;;;;;;4980147;28;20042;-90
2021/10/19 03:06:06;;;;;;;4.15;3.85;;;16.30;79.40;;;;;;4995261;28;20068;-89
2021/10/19 03:08:32;;;;;;;23.83;3.90;;;16.30;79.40;;;;;;4992595;28;20038;-89
2021/10/19 03:10:58;;;;;;;4.10;3.90;;;16.30;79.50;;;;;;4989724;28;20502;-89
2021/10/19 03:13:25;;;;;;;3.80;3.60;;;16.20;79.50;;;;;;4992016;28;20491;-89
2021/10/19 03:15:51;;;;;;;4.50;4.20;;;16.20;79.90;;;;;;4979115;28;20406;-89
2021/10/19 03:18:17;;;;;;;5.30;4.28;;;16.20;79.50;;;;;;4998541;28;20399;-88
2021/10/19 03:20:43;;;;;;;4.30;4.10;;;16.20;79.50;;;;;;4984766;28;20061;-90
2021/10/19 03:23:09;;;;;;;3.75;3.55;;;16.10;79.50;;;;;;4993251;28;20039;-88
2021/10/19 03:25:36;;;;;;;3.90;3.70;;;16.10;79.50;;;;;;5005802;28;20042;-89
2021/10/19 03:28:02;;;;;;;4.07;3.88;;;16.10;79.50;;;;;;4996036;28;20479;-89
2021/10/19 03:30:29;;;;;;;3.58;3.38;;;16.10;79.50;;;;;;4975629;28;20031;-86
2021/10/19 03:32:55;;;;;;;3.90;3.70;;;16.00;79.50;;;;;;4994956;28;20030;-86
2021/10/19 03:35:21;;;;;;;3.80;3.60;;;16.00;79.50;;;;;;4993479;28;20045;-87
2021/10/19 03:37:47;;;;;;;4.70;4.40;;;16.00;79.60;;;;;;4976687;28;20396;-89
2021/10/19 03:40:13;;;;;;;3.80;3.60;;;16.00;79.60;;;;;;4993513;28;20042;-87
2021/10/19 03:42:41;;;;;;;3.60;3.40;;;16.00;79.60;;;;;;4996761;28;20022;-86
2021/10/19 03:45:09;;;;;;;3.97;3.78;;;16.00;79.60;;;;;;4975879;28;20042;-89
2021/10/19 03:47:35;;;;;;;4.18;3.97;;;16.00;79.60;;;;;;4981168;28;20031;-89
2021/10/19 03:50:01;;;;;;;3.80;3.60;;;16.00;79.60;;;;;;4988044;28;20050;-85
2021/10/19 03:52:27;;;;;;;3.92;3.72;;;15.90;79.40;;;;;;4989663;28;20030;-85
2021/10/19 03:54:53;;;;;;;4.47;4.20;;;15.90;79.50;;;;;;4995121;28;20038;-84
2021/10/19 03:57:19;;;;;;;4.68;3.95;;;15.90;79.50;;;;;;4995408;28;20041;-85
2021/10/19 03:59:45;;;;;;;3.90;3.70;;;15.90;80.30;;;;;;4993993;28;20046;-84
2021/10/19 04:02:11;;;;;;;4.03;3.83;;;15.90;79.60;;;;;;4995075;28;20040;-85
2021/10/19 04:04:37;;;;;;;3.97;3.78;;;15.80;79.50;;;;;;4989646;28;20038;-85
2021/10/19 04:07:04;;;;;;;4.22;4.00;;;15.80;79.60;;;;;;4994506;28;20385;-84
2021/10/19 04:09:30;;;;;;;3.70;3.50;;;15.70;79.50;;;;;;4991029;28;20034;-85
2021/10/19 04:11:56;;;;;;;4.15;3.95;;;15.70;79.60;;;;;;4995265;28;20543;-85
2021/10/19 04:14:22;;;;;;;4.95;3.58;;;15.70;79.60;;;;;;4992931;28;20041;-85
2021/10/19 04:16:48;;;;;;;3.78;3.58;;;15.70;79.60;;;;;;4992219;28;20414;-84
2021/10/19 04:19:14;;;;;;;4.43;4.00;;;15.60;79.60;;;;;;4976370;28;20042;-84
2021/10/19 04:21:45;;;;;;;3.83;3.63;;;15.60;79.60;;;;;;4994639;28;20395;-84
2021/10/19 04:24:12;;;;;;;4.00;3.80;;;15.60;79.70;;;;;;4997016;28;20415;-84
2021/10/19 04:26:38;;;;;;;3.78;3.58;;;15.60;79.70;;;;;;4999163;28;20410;-84
2021/10/19 04:29:04;;;;;;;3.85;3.65;;;15.60;79.70;;;;;;5005337;28;20040;-84
2021/10/19 04:31:31;;;;;;;4.20;3.97;;;15.50;79.60;;;;;;4968650;28;20040;-84
2021/10/19 04:33:59;;;;;;;3.72;3.53;;;15.50;79.70;;;;;;4976563;28;20030;-84
2021/10/19 04:36:26;;;;;;;3.58;3.38;;;15.50;79.70;;;;;;4980731;28;20381;-84
2021/10/19 04:38:52;;;;;;;3.60;3.40;;;15.50;79.70;;;;;;4972551;28;20030;-85
2021/10/19 04:41:18;;;;;;;3.78;3.58;;;15.50;79.70;;;;;;4974812;28;20467;-85
2021/10/19 04:43:44;;;;;;;4.20;3.90;;;15.50;79.70;;;;;;4972332;28;20026;-85
2021/10/19 04:46:11;;;;;;;4.28;4.05;;;15.50;79.70;;;;;;4987513;28;20046;-85
2021/10/19 04:48:37;;;;;;;3.78;3.58;;;15.40;79.70;;;;;;4996187;28;20213;-85
2021/10/19 04:51:03;;;;;;;3.80;3.60;;;15.40;79.70;;;;;;4998541;28;20395;-85
2021/10/19 04:53:31;;;;;;;3.88;3.67;;;15.40;79.70;;;;;;5005986;28;20037;-85
2021/10/19 04:55:57;;;;;;;4.00;3.80;;;15.40;79.70;;;;;;5007615;28;20471;-85
2021/10/19 04:58:24;;;;;;;3.75;3.55;;;15.40;79.70;;;;;;4994584;28;20044;-85
2021/10/19 05:00:50;;;;;;;4.25;4.03;;;15.30;79.70;;;;;;5000128;28;20388;-85
2021/10/19 05:03:17;;;;;;;3.80;3.60;;;15.30;79.70;;;;;;4991995;28;20042;-85
2021/10/19 05:05:43;;;;;;;4.20;4.00;;;15.30;79.70;;;;;;4996833;28;20050;-85
2021/10/19 05:08:10;;;;;;;4.30;4.00;;;15.30;79.70;;;;;;5013110;28;20045;-85
2021/10/19 05:10:36;;;;;;;4.30;4.00;;;15.30;79.70;;;;;;4992480;28;20030;-85
2021/10/19 05:13:02;;;;;;;4.35;4.07;;;15.30;79.70;;;;;;4998824;28;20026;-85
2021/10/19 05:15:28;;;;;;;4.43;4.05;;;15.20;79.70;;;;;;5001637;28;20045;-85
2021/10/19 05:17:54;;;;;;;3.50;3.30;;;15.20;79.70;;;;;;5001575;28;20053;-85
2021/10/19 05:20:20;;;;;;;4.05;3.85;;;15.20;79.70;;;;;;4990854;28;20038;-85
2021/10/19 05:22:46;;;;;;;3.45;3.35;;;15.20;79.70;;;;;;5007493;28;20038;-84
2021/10/19 05:25:12;;;;;;;4.10;3.72;;;15.20;79.70;;;;;;4997734;28;20503;-84
2021/10/19 05:27:39;;;;;;;4.00;3.80;;;15.10;79.60;;;;;;4999011;28;20022;-84
2021/10/19 05:30:06;;;;;;;3.70;3.50;;;15.10;79.70;;;;;;4997881;28;20030;-84
2021/10/19 05:32:32;;;;;;;3.70;3.50;;;15.10;79.80;;;;;;4998884;28;20014;-87
2021/10/19 05:34:58;;;;;;;3.58;3.45;;;15.10;79.80;;;;;;5006458;28;20037;-82
2021/10/19 05:37:24;;;;;;;3.83;3.63;;;15.10;79.80;;;;;;4994498;28;20030;-82
2021/10/19 05:39:50;;;;;;;3.78;3.58;;;15.10;79.80;;;;;;5030940;28;20049;-83
2021/10/19 05:42:17;;;;;;;3.85;3.65;;;15.00;79.70;;;;;;4997611;28;20022;-82
2021/10/19 05:44:43;;;;;;;4.07;3.88;;;15.10;79.80;;;;;;4998038;28;20488;-83
2021/10/19 05:47:09;;;;;;;4.57;4.10;;;15.00;79.70;;;;;;4988127;28;20038;-86
2021/10/19 05:49:35;;;;;;;4.47;4.18;;;15.10;79.80;;;;;;4993702;28;20022;-82
2021/10/19 05:52:01;;;;;;;4.05;3.85;;;15.00;79.70;;;;;;4999198;28;20507;-82
2021/10/19 05:54:28;;;;;;;5.03;4.40;;;15.10;79.80;;;;;;5028773;28;20399;-83
2021/10/19 05:56:54;;;;;;;4.15;3.72;;;15.00;79.60;;;;;;4997388;28;20034;-84
2021/10/19 05:59:20;;;;;;;4.25;3.97;;;15.10;79.70;;;;;;4990775;28;20039;-83
2021/10/19 06:01:46;;;;;;;4.28;4.07;;;15.00;79.60;;;;;;5007790;28;20042;-83
2021/10/19 06:04:12;;;;;;;4.55;4.20;;;15.00;79.60;;;;;;4993638;28;20034;-83
2021/10/19 06:06:39;;;;;;;4.13;3.90;;;15.00;79.60;;;;;;4998351;28;20042;-92
2021/10/19 06:09:05;;;;;;;3.75;3.55;;;15.00;79.60;;;;;;4998381;28;20031;-89
2021/10/19 06:11:31;;;;;;;3.90;3.30;;;15.00;79.60;;;;;;4997719;28;20075;-88
2021/10/19 06:13:57;;;;;;;3.70;3.50;;;15.10;79.60;;;;;;4996021;28;20040;-89
2021/10/19 06:16:23;;;;;;;3.53;3.33;;;15.10;79.60;;;;;;4993110;28;20038;-89
2021/10/19 06:18:49;;;;;;;4.10;3.83;;;15.10;79.60;;;;;;4999302;28;20395;-84
2021/10/19 06:21:18;;;;;;;4.68;4.38;;;15.10;79.50;;;;;;4990916;28;20042;-88
2021/10/19 06:23:44;;;;;;;4.55;4.18;;;15.10;79.50;;;;;;4999586;28;20126;-91
2021/10/19 06:26:11;;;;;;;10.13;4.30;;;15.00;79.40;;;;;;5022784;28;20054;-90
2021/10/19 06:28:37;;;;;;;3.90;3.70;;;15.10;79.60;;;;;;5008458;28;20038;-87
2021/10/19 06:31:03;;;;;;;4.35;4.15;;;15.00;79.50;;;;;;4972425;28;20034;-89
2021/10/19 06:33:29;;;;;;;4.20;3.88;;;15.00;79.50;;;;;;4983526;28;20042;-87
2021/10/19 06:35:55;;;;;;;4.10;3.80;;;15.00;79.60;;;;;;4998118;28;20078;-93
2021/10/19 06:38:21;;;;;;;4.60;4.30;;;15.00;79.60;;;;;;4984299;28;20039;-92
2021/10/19 06:40:47;;;;;;;4.78;4.15;;;15.00;79.60;;;;;;5026041;28;20042;-91
2021/10/19 06:43:14;;;;;;;5.03;3.92;;;15.00;79.60;;;;;;5011595;28;20031;-91
2021/10/19 06:45:40;;;;;;;4.25;3.92;;;15.00;80.30;;;;;;4981632;28;20034;-91
2021/10/19 06:48:06;;;;;;;3.97;3.78;;;15.00;79.50;;;;;;4984555;28;20039;-90
2021/10/19 06:50:32;;;;;;;4.90;4.22;;;15.00;79.50;;;;;;5004817;28;20038;-93
2021/10/19 06:52:58;;;;;;;4.28;3.85;;;15.00;79.50;;;;;;4978694;28;20038;-88
2021/10/19 06:55:24;;;;;;;4.13;3.92;;;15.00;79.50;;;;;;4989078;28;20035;-90
2021/10/19 06:57:50;;;;;;;4.30;3.97;;;15.00;79.50;;;;;;4989841;28;20038;-86
2021/10/19 07:00:17;;;;;;;4.68;4.38;;;15.00;79.50;;;;;;5018080;28;20062;-86
2021/10/19 07:02:44;;;;;;;3.67;3.47;;;15.00;79.50;;;;;;5015377;28;20023;-88
2021/10/19 07:05:10;;;;;;;4.10;3.88;;;14.90;79.50;;;;;;5008495;28;20037;-86
2021/10/19 07:07:41;;;;;;;4.07;3.88;;;14.90;79.50;;;;;;4999333;28;20037;-87
2021/10/19 07:10:08;;;;;;;4.45;4.20;;;14.90;79.50;;;;;;4988928;28;20383;-89
2021/10/19 07:12:36;;;;;;;3.80;3.60;;;14.90;79.60;;;;;;5002542;28;20050;-85
2021/10/19 07:15:06;;;;;;;3.72;3.53;;;14.90;79.60;;;;;;4992039;28;20026;-84
2021/10/19 07:17:32;;;;;;;3.63;3.42;;;14.90;79.60;;;;;;4988728;28;20041;-85
2021/10/19 07:19:58;;;;;;;3.58;3.38;;;14.90;79.60;;;;;;5023623;28;20034;-89
2021/10/19 07:22:28;;;;;;;4.28;3.92;;;14.90;79.50;;;;;;4996486;28;20053;-89
2021/10/19 07:24:55;;;;;;;3.17;2.97;;;15.00;79.60;;;;;;4969402;28;20051;-87
2021/10/19 07:27:21;;;;;;;3.70;3.35;;;15.40;78.90;;;;;;4981927;28;20030;-84
2021/10/19 07:29:47;;;;;;;3.40;3.20;;;15.90;77.60;;;;;;5014740;28;20377;-92
2021/10/19 07:32:14;;;;;;;3.47;3.17;;;16.50;76.20;;;;;;4983117;28;20038;-91
2021/10/19 07:34:41;;;;;;;4.15;3.88;;;17.00;75.00;;;;;;5018795;28;20046;-90
2021/10/19 07:37:07;;;;;;;4.13;3.92;;;17.50;74.00;;;;;;4998729;28;20042;-91
2021/10/19 07:39:33;;;;;;;4.80;4.60;;;17.80;73.20;;;;;;4972051;28;20034;-92
2021/10/19 07:41:59;;;;;;;5.88;5.57;;;18.10;72.70;;;;;;5017913;28;20046;-91
2021/10/19 07:44:25;;;;;;;5.45;4.95;;;18.40;72.30;;;;;;4980549;28;20034;-88
2021/10/19 07:46:52;;;;;;;4.63;4.35;;;18.70;71.80;;;;;;5007142;28;20034;-92
2021/10/19 07:49:19;;;;;;;5.20;4.80;;;18.80;72.20;;;;;;5007396;28;20042;-91
2021/10/19 07:51:45;;;;;;;5.18;4.88;;;19.10;71.30;;;;;;4986083;28;20530;-91
2021/10/19 07:54:12;;;;;;;6.32;6.03;;;19.30;71.00;;;;;;5019921;28;20034;-89
2021/10/19 07:56:38;;;;;;;6.38;6.07;;;19.40;70.60;;;;;;5003346;28;20030;-83
2021/10/19 07:59:05;;;;;;;7.15;6.85;;;19.50;70.60;;;;;;4985667;28;20518;-86
2021/10/19 08:01:33;;;;;;;7.03;6.53;;;19.50;70.80;;;;;;4976183;28;20045;-83
2021/10/19 08:03:59;;;;;;;6.57;6.07;;;19.60;70.70;;;;;;5002773;28;20489;-81
2021/10/19 08:06:25;;;;;;;12.45;6.07;;;19.70;70.70;;;;;;4976982;28;20034;-86
2021/10/19 08:08:52;;;;;;;5.40;5.10;;;19.80;70.60;;;;;;4993713;28;20030;-88
2021/10/19 08:11:18;;;;;;;5.70;5.40;;;20.00;70.50;;;;;;4986097;28;20045;-88
2021/10/19 08:13:44;;;;;;;6.15;5.75;;;20.20;70.00;;;;;;4990414;28;20023;-89
2021/10/19 08:16:10;;;;;;;5.50;5.22;;;20.30;69.70;;;;;;4984819;28;20034;-88
2021/10/19 08:18:36;;;;;;;6.07;5.68;;;20.40;69.90;;;;;;4996509;28;20357;-88
2021/10/19 08:21:02;;;;;;;6.15;5.85;;;20.50;69.80;;;;;;4995231;28;20103;-90
2021/10/19 08:23:29;;;;;;;6.45;6.15;;;20.70;69.60;;;;;;4990490;28;20045;-86
2021/10/19 08:25:55;;;;;;;6.63;6.18;;;20.60;69.40;;;;;;5003630;28;20395;-87
2021/10/19 08:28:23;;;;;;;5.97;5.68;;;20.60;69.70;;;;;;4991049;28;20030;-88
2021/10/19 08:30:50;;;;;;;6.00;5.70;;;20.40;70.10;;;;;;4978011;28;20045;-88
2021/10/19 08:33:16;;;;;;;6.35;5.88;;;20.20;70.90;;;;;;4979803;28;20039;-87
2021/10/19 08:35:42;;;;;;;5.65;5.35;;;20.10;71.50;;;;;;5003877;28;20042;-88
2021/10/19 08:38:12;;;;;;;5.35;5.15;;;20.00;71.80;;;;;;5023151;28;20049;-83
2021/10/19 08:40:40;;;;;;;6.25;5.90;;;19.90;72.20;;;;;;5025844;28;20050;-86
2021/10/19 08:43:06;;;;;;;4.70;4.50;;;19.80;72.30;;;;;;4990760;28;20026;-84
2021/10/19 08:45:32;;;;;;;5.22;4.97;;;19.70;72.40;;;;;;4984231;28;20396;-85
2021/10/19 08:47:59;;;;;;;5.75;5.25;;;19.50;72.80;;;;;;4995341;28;20181;-84
2021/10/19 08:50:25;;;;;;;5.38;5.07;;;19.40;73.20;;;;;;5001769;28;20023;-83
2021/10/19 08:52:51;;;;;;;5.50;5.20;;;19.30;73.40;;;;;;5013859;28;20022;-82
2021/10/19 08:55:17;;;;;;;5.25;4.95;;;19.30;73.50;;;;;;4997593;28;20026;-84
2021/10/19 08:57:43;;;;;;;5.70;5.30;;;19.40;73.60;;;;;;5022964;28;20398;-85
2021/10/19 09:00:11;;;;;;;5.38;5.07;;;19.40;73.50;;;;;;4989624;28;20029;-84
2021/10/19 09:02:44;;;;;;;5.78;5.47;;;19.50;73.50;;;;;;4981517;28;20046;-84
2021/10/19 09:05:17;;;;;;;5.75;5.45;;;19.60;73.30;;;;;;5010941;28;20022;-83
2021/10/19 09:08:00;;;;;;;6.07;5.78;;;19.70;73.20;;;;;;4994488;28;20026;-83
2021/10/19 09:10:31;;;;;;;6.88;6.38;;;19.80;73.00;;;;;;4996401;28;22641;-84
2021/10/19 09:12:59;;;;;;;6.43;6.03;;;19.90;72.90;;;;;;5009997;28;20023;-83
2021/10/19 09:15:26;;;;;;;5.68;5.38;;;20.00;72.70;;;;;;4995519;28;20042;-86
2021/10/19 09:17:52;;;;;;;6.07;5.78;;;20.00;72.50;;;;;;5007387;28;20034;-83
2021/10/19 09:20:19;;;;;;;5.30;5.10;;;20.10;72.50;;;;;;4991309;28;20042;-83
2021/10/19 09:22:56;;;;;;;5.90;5.60;;;20.20;72.40;;;;;;5009300;28;20038;-84
2021/10/19 09:25:39;;;;;;;5.72;5.43;;;20.20;72.20;;;;;;5026047;28;20499;-91
2021/10/19 09:28:07;;;;;;;6.40;6.03;;;20.30;72.20;;;;;;5011968;28;20046;-95
2021/10/19 09:30:38;;;;;;;5.53;5.22;;;20.40;72.10;;;;;;4997396;28;20038;-87
2021/10/19 09:33:06;;;;;;;5.97;5.68;;;20.40;72.00;;;;;;4983288;28;20045;-90
2021/10/19 09:35:34;;;;;;;5.20;5.00;;;20.50;71.90;;;;;;5003124;28;20046;-81
2021/10/19 09:38:08;;;;;;;6.38;6.03;;;20.60;71.70;;;;;;4991416;28;20030;-84
2021/10/19 09:40:40;;;;;;;4.97;4.78;;;20.60;71.70;;;;;;4978461;28;20053;-84
2021/10/19 09:43:08;;;;;;;5.80;5.50;;;20.70;71.70;;;;;;5022779;28;20023;-85
2021/10/19 09:45:34;;;;;;;5.70;5.22;;;20.80;71.60;;;;;;5005395;28;20039;-85
2021/10/19 09:48:01;;;;;;;6.05;5.75;;;20.80;71.50;;;;;;5002935;28;20046;-82
2021/10/19 09:50:28;;;;;;;6.32;6.03;;;20.90;71.40;;;;;;4986544;28;20038;-83
2021/10/19 09:52:55;;;;;;;5.88;5.30;;;21.00;71.40;;;;;;4989721;28;20027;-81
2021/10/19 09:55:22;;;;;;;6.07;5.78;;;21.10;71.30;;;;;;4993752;28;20030;-84
2021/10/19 09:57:51;;;;;;;6.40;6.00;;;21.20;71.10;;;;;;4978442;28;20094;-88
2021/10/19 10:00:17;;;;;;;6.32;5.97;;;21.20;70.90;;;;;;4970345;28;20034;-88
2021/10/19 10:02:47;;;;;;;5.70;5.40;;;21.30;70.90;;;;;;4984671;28;20042;-86
2021/10/19 10:05:13;;;;;;;6.78;6.28;;;21.40;70.70;;;;;;4971253;28;20066;-86
2021/10/19 10:07:41;;;;;;;6.13;5.82;;;21.40;70.70;;;;;;4992119;28;20046;-86
2021/10/19 10:10:07;;;;;;;6.80;6.40;;;21.40;70.70;;;;;;5004915;28;20475;-86
2021/10/19 10:12:34;;;;;;;6.65;6.35;;;21.50;70.60;;;;;;5001058;28;20054;-88
2021/10/19 10:15:00;;;;;;;6.30;6.00;;;21.50;70.40;;;;;;4997267;28;20037;-85
2021/10/19 10:17:26;;;;;;;6.68;6.38;;;21.60;70.40;;;;;;4995559;28;20038;-84
2021/10/19 10:19:53;;;;;;;7.43;6.82;;;21.60;70.20;;;;;;5005184;28;20030;-85
2021/10/19 10:22:26;;;;;;;7.35;6.95;;;21.70;70.10;;;;;;4974682;28;20066;-85
2021/10/19 10:25:06;;;;;;;6.85;6.55;;;21.70;69.90;;;;;;4990854;28;20475;-86
2021/10/19 10:27:32;;;;;;;7.75;7.28;;;21.80;69.70;;;;;;5001129;28;20038;-86
2021/10/19 10:29:58;;;;;;;7.97;6.68;;;21.80;69.60;;;;;;5018921;28;20053;-89
2021/10/19 10:32:28;;;;;;;7.18;6.88;;;21.90;69.50;;;;;;4989784;28;20041;-86
2021/10/19 10:35:05;;;;;;;14.57;7.53;;;22.00;69.30;;;;;;4991756;28;20043;-87
2021/10/19 10:37:44;;;;;;;7.35;7.05;;;22.00;69.20;;;;;;5004509;28;20281;-82
2021/10/19 10:40:24;;;;;;;7.13;6.63;;;22.10;69.00;;;;;;5006398;28;20038;-87
2021/10/19 10:42:51;;;;;;;7.50;7.10;;;22.10;68.80;;;;;;4990115;28;20046;-84
2021/10/19 10:45:22;;;;;;;7.50;7.10;;;22.20;68.70;;;;;;4987725;28;20041;-89
2021/10/19 10:47:55;;;;;;;7.90;7.50;;;22.20;68.60;;;;;;4988626;28;20034;-85
2021/10/19 10:50:21;;;;;;;7.93;7.53;;;22.20;68.40;;;;;;5019510;28;20023;-85
2021/10/19 10:53:04;;;;;;;7.90;7.50;;;22.20;68.30;;;;;;4988616;28;20041;-84
2021/10/19 10:55:40;;;;;;;8.40;8.00;;;22.30;68.20;;;;;;4988048;28;20502;-85
2021/10/19 10:58:06;;;;;;;8.60;8.20;;;22.30;68.10;;;;;;4980696;28;20038;-85
2021/10/19 11:00:32;;;;;;;9.25;8.68;;;22.40;67.90;;;;;;4982671;28;20053;-84
2021/10/19 11:03:14;;;;;;;8.70;8.30;;;22.50;67.80;;;;;;4967294;28;20515;-83
2021/10/19 11:05:58;;;;;;;9.13;8.63;;;22.60;67.60;;;;;;4972316;28;20031;-82
2021/10/19 11:08:32;;;;;;;8.80;8.32;;;22.60;67.30;;;;;;4990268;28;20026;-83
2021/10/19 11:11:16;;;;;;;9.10;8.68;;;22.70;67.10;;;;;;4990038;28;20849;-84
2021/10/19 11:13:59;;;;;;;8.68;8.27;;;22.80;67.00;;;;;;5008869;28;20415;-82
2021/10/19 11:16:33;;;;;;;8.75;8.35;;;22.80;66.60;;;;;;4963527;28;20400;-84
2021/10/19 11:19:00;;;;;;;9.00;8.60;;;22.90;66.60;;;;;;4968660;28;20030;-85
2021/10/19 11:21:26;;;;;;;9.15;8.75;;;22.90;66.40;;;;;;4977051;28;20059;-83
2021/10/19 11:23:52;;;;;;;9.43;8.93;;;23.00;66.40;;;;;;4966407;28;20377;-84
2021/10/19 11:26:18;;;;;;;9.57;9.07;;;23.00;66.10;;;;;;4968447;28;20031;-84
2021/10/19 11:28:45;;;;;;;9.50;9.10;;;23.10;66.00;;;;;;4999290;28;20046;-83
2021/10/19 11:31:12;;;;;;;10.20;9.70;;;23.20;65.80;;;;;;4961549;28;20546;-84
2021/10/19 11:33:42;;;;;;;9.77;9.07;;;23.20;65.60;;;;;;5021097;28;20045;-82
2021/10/19 11:36:08;;;;;;;10.10;9.60;;;23.20;65.50;;;;;;4986314;28;20046;-81
2021/10/19 11:38:48;;;;;;;9.40;8.95;;;23.30;65.30;;;;;;5001443;28;20039;-82
2021/10/19 11:41:16;;;;;;;10.05;9.57;;;23.30;65.00;;;;;;5023900;28;20038;-93
2021/10/19 11:43:49;;;;;;;10.07;9.60;;;23.40;65.00;;;;;;4983161;28;20046;-79
2021/10/19 11:46:17;;;;;;;9.93;9.43;;;23.40;64.80;;;;;;4975742;28;20038;-78
2021/10/19 11:48:43;;;;;;;10.35;9.75;;;23.50;64.70;;;;;;4976092;28;20042;-78
2021/10/19 11:51:14;;;;;;;10.25;9.75;;;23.50;64.50;;;;;;4981975;28;20484;-79
2021/10/19 11:53:44;;;;;;;9.05;8.65;;;23.60;64.40;;;;;;4995205;28;20034;-79
2021/10/19 11:56:10;;;;;;;9.65;9.18;;;23.60;64.10;;;;;;4995532;28;20026;-79
2021/10/19 11:58:53;;;;;;;10.02;9.55;;;23.60;64.00;;;;;;4997240;28;20909;-79
2021/10/19 12:01:20;;;;;;;9.73;9.23;;;23.70;63.80;;;;;;4984617;28;20419;-79
2021/10/19 12:03:59;;;;;;;11.35;10.85;;;23.80;63.70;;;;;;4987797;28;20403;-79
2021/10/19 12:06:32;;;;;;;9.90;9.40;;;23.80;63.40;;;;;;4967754;28;20034;-79
2021/10/19 12:09:22;;;;;;;10.52;10.02;;;23.90;63.30;;;;;;5002397;28;20022;-79
2021/10/19 12:11:50;;;;;;;10.32;9.82;;;23.90;63.10;;;;;;5020151;28;20510;-79
2021/10/19 12:14:17;;;;;;;10.45;9.95;;;23.90;63.00;;;;;;4989527;28;20041;-79
2021/10/19 12:16:50;;;;;;;11.55;11.05;;;24.00;63.00;;;;;;5005365;28;20041;-79
2021/10/19 12:19:16;;;;;;;12.23;11.60;;;24.00;62.90;;;;;;4987658;28;20045;-80
2021/10/19 12:21:51;;;;;;;13.13;12.52;;;24.00;62.70;;;;;;4970585;28;20427;-79
2021/10/19 12:24:17;;;;;;;13.57;12.57;;;24.00;62.40;;;;;;4986452;28;20022;-78
2021/10/19 12:26:43;;;;;;;11.88;11.35;;;24.10;62.30;;;;;;5002386;28;20031;-79
2021/10/19 12:29:11;;;;;;;11.32;10.80;;;24.10;62.10;;;;;;4999933;28;20031;-79
2021/10/19 12:31:37;;;;;;;13.38;12.70;;;24.10;61.90;;;;;;5002666;28;20502;-79
2021/10/19 12:34:05;;;;;;;14.00;13.35;;;24.10;61.80;;;;;;5007432;28;20042;-79
2021/10/19 12:36:34;;;;;;;12.82;12.23;;;24.10;61.70;;;;;;5011835;28;20047;-79
2021/10/19 12:39:03;;;;;;;13.25;12.65;;;24.10;61.60;;;;;;4998812;28;20419;-79
2021/10/19 12:41:32;;;;;;;13.13;12.52;;;24.20;61.60;;;;;;5011800;28;20042;-79
2021/10/19 12:43:58;;;;;;;13.23;12.63;;;24.20;61.50;;;;;;4987936;28;20392;-78
2021/10/19 12:46:25;;;;;;;14.02;13.25;;;24.20;61.30;;;;;;4987327;28;20053;-79